sensor_id;sensor_type;location;lat;lon;timestamp;pressure;altitude;pressure_sealevel;temperature;humidity
21728;BME280;11026;50.560;17.852;2023-04-10T00:01:17;100483.19;;;6.10;100.00
21728;BME280;11026;50.560;17.852;2023-04-10T00:03:45;100484.06;;;6.10;100.00
21728;BME280;11026;50.560;17.852;2023-04-10T00:06:12;100490.22;;;6.05;100.00
21728;BME280;11026;50.560;17.852;2023-04-10T00:08:40;100482.28;;;6.09;100.00
21728;BME280;11026;50.560;17.852;2023-04-10T00:11:08;100474.47;;;6.05;100.00
21728;BME280;11026;50.560;17.852;2023-04-10T00:13:35;100480.41;;;6.24;100.00
21728;BME280;11026;50.560;17.852;2023-04-10T00:16:02;100480.44;;;6.18;100.00
21728;BME280;11026;50.560;17.852;2023-04-10T00:18:30;100480.44;;;6.18;100.00
21728;BME280;11026;50.560;17.852;2023-04-10T00:20:57;100477.88;;;6.13;100.00
21728;BME280;11026;50.560;17.852;2023-04-10T00:23:25;100478.81;;;6.10;100.00
21728;BME280;11026;50.560;17.852;2023-04-10T00:25:52;100470.88;;;6.15;100.00
21728;BME280;11026;50.560;17.852;2023-04-10T00:28:21;100474.38;;;6.15;100.00
21728;BME280;11026;50.560;17.852;2023-04-10T00:30:48;100468.28;;;6.09;100.00
21728;BME280;11026;50.560;17.852;2023-04-10T00:33:16;100478.03;;;5.99;100.00
21728;BME280;11026;50.560;17.852;2023-04-10T00:35:43;100475.41;;;5.98;100.00
21728;BME280;11026;50.560;17.852;2023-04-10T00:38:11;100487.56;;;6.11;100.00
21728;BME280;11026;50.560;17.852;2023-04-10T00:40:38;100484.09;;;6.07;100.00
21728;BME280;11026;50.560;17.852;2023-04-10T00:43:06;100482.09;;;6.28;100.00
21728;BME280;11026;50.560;17.852;2023-04-10T00:45:35;100478.63;;;6.24;100.00
21728;BME280;11026;50.560;17.852;2023-04-10T00:48:04;100471.53;;;6.34;100.00
21728;BME280;11026;50.560;17.852;2023-04-10T00:50:32;100475.72;;;6.50;100.00
21728;BME280;11026;50.560;17.852;2023-04-10T00:53:02;100468.53;;;6.63;100.00
21728;BME280;11026;50.560;17.852;2023-04-10T00:55:29;100465.84;;;6.68;100.00
21728;BME280;11026;50.560;17.852;2023-04-10T00:57:57;100467.56;;;6.69;100.00
21728;BME280;11026;50.560;17.852;2023-04-10T01:00:24;100467.50;;;6.75;100.00
21728;BME280;11026;50.560;17.852;2023-04-10T01:02:53;100460.53;;;6.74;100.00
21728;BME280;11026;50.560;17.852;2023-04-10T01:05:23;100454.41;;;6.73;100.00
21728;BME280;11026;50.560;17.852;2023-04-10T01:10:49;100463.31;;;6.61;100.00
21728;BME280;11026;50.560;17.852;2023-04-10T01:16:30;100467.81;;;6.53;100.00
21728;BME280;11026;50.560;17.852;2023-04-10T01:19:25;100466.97;;;6.50;100.00
21728;BME280;11026;50.560;17.852;2023-04-10T01:21:57;100465.03;;;6.61;100.00
21728;BME280;11026;50.560;17.852;2023-04-10T01:24:44;100466.78;;;6.63;100.00
21728;BME280;11026;50.560;17.852;2023-04-10T01:30:05;100463.38;;;6.55;100.00
21728;BME280;11026;50.560;17.852;2023-04-10T01:32:40;100460.69;;;6.61;100.00
21728;BME280;11026;50.560;17.852;2023-04-10T01:35:10;100458.00;;;6.64;100.00
21728;BME280;11026;50.560;17.852;2023-04-10T01:37:42;100455.44;;;6.61;100.00
21728;BME280;11026;50.560;17.852;2023-04-10T01:40:14;100458.75;;;6.73;100.00
21728;BME280;11026;50.560;17.852;2023-04-10T01:42:47;100456.03;;;6.80;100.00
21728;BME280;11026;50.560;17.852;2023-04-10T01:45:26;100466.44;;;6.89;100.00
21728;BME280;11026;50.560;17.852;2023-04-10T01:47:55;100462.91;;;6.90;100.00
21728;BME280;11026;50.560;17.852;2023-04-10T01:50:22;100462.84;;;6.95;100.00
21728;BME280;11026;50.560;17.852;2023-04-10T01:52:51;100469.06;;;6.88;100.00
21728;BME280;11026;50.560;17.852;2023-04-10T01:55:19;100463.91;;;6.82;100.00
21728;BME280;11026;50.560;17.852;2023-04-10T01:57:48;100468.06;;;6.97;100.00
21728;BME280;11026;50.560;17.852;2023-04-10T02:00:16;100471.66;;;6.91;100.00
21728;BME280;11026;50.560;17.852;2023-04-10T02:02:43;100463.66;;;6.99;100.00
21728;BME280;11026;50.560;17.852;2023-04-10T02:05:11;100461.03;;;6.99;100.00
21728;BME280;11026;50.560;17.852;2023-04-10T02:07:56;100464.56;;;6.96;100.00
21728;BME280;11026;50.560;17.852;2023-04-10T02:10:30;100459.41;;;6.88;100.00
21728;BME280;11026;50.560;17.852;2023-04-10T02:13:06;100464.78;;;6.82;100.00
21728;BME280;11026;50.560;17.852;2023-04-10T02:15:35;100459.78;;;6.62;100.00
21728;BME280;11026;50.560;17.852;2023-04-10T02:18:03;100456.19;;;6.68;100.00
21728;BME280;11026;50.560;17.852;2023-04-10T02:20:33;100464.28;;;6.54;100.00
21728;BME280;11026;50.560;17.852;2023-04-10T02:23:01;100472.25;;;6.45;100.00
21728;BME280;11026;50.560;17.852;2023-04-10T02:25:33;100476.78;;;6.34;100.00
21728;BME280;11026;50.560;17.852;2023-04-10T02:28:05;100468.97;;;6.28;100.00
21728;BME280;11026;50.560;17.852;2023-04-10T02:30:34;100475.16;;;6.24;100.00
21728;BME280;11026;50.560;17.852;2023-04-10T02:33:02;100468.91;;;6.32;100.00
21728;BME280;11026;50.560;17.852;2023-04-10T02:35:30;100466.19;;;6.40;100.00
21728;BME280;11026;50.560;17.852;2023-04-10T02:37:59;100459.06;;;6.51;100.00
21728;BME280;11026;50.560;17.852;2023-04-10T02:40:27;100461.63;;;6.56;100.00
21728;BME280;11026;50.560;17.852;2023-04-10T02:42:54;100453.75;;;6.54;100.00
21728;BME280;11026;50.560;17.852;2023-04-10T02:45:23;100457.34;;;6.47;100.00
21728;BME280;11026;50.560;17.852;2023-04-10T02:47:50;100450.41;;;6.42;100.00
21728;BME280;11026;50.560;17.852;2023-04-10T02:50:19;100454.94;;;6.30;100.00
21728;BME280;11026;50.560;17.852;2023-04-10T02:52:46;100462.75;;;6.35;100.00
21728;BME280;11026;50.560;17.852;2023-04-10T02:55:14;100456.59;;;6.37;100.00
21728;BME280;11026;50.560;17.852;2023-04-10T02:57:42;100468.94;;;6.31;100.00
21728;BME280;11026;50.560;17.852;2023-04-10T03:00:10;100468.75;;;6.46;100.00
21728;BME280;11026;50.560;17.852;2023-04-10T03:02:37;100471.44;;;6.40;100.00
21728;BME280;11026;50.560;17.852;2023-04-10T03:05:05;100473.13;;;6.47;100.00
21728;BME280;11026;50.560;17.852;2023-04-10T03:07:34;100471.22;;;6.58;100.00
21728;BME280;11026;50.560;17.852;2023-04-10T03:10:02;100486.13;;;6.58;100.00
21728;BME280;11026;50.560;17.852;2023-04-10T03:12:30;100473.88;;;6.58;100.00
21728;BME280;11026;50.560;17.852;2023-04-10T03:14:58;100481.69;;;6.63;100.00
21728;BME280;11026;50.560;17.852;2023-04-10T03:17:39;100484.25;;;6.68;100.00
21728;BME280;11026;50.560;17.852;2023-04-10T03:20:07;100470.31;;;6.62;100.00
21728;BME280;11026;50.560;17.852;2023-04-10T03:22:42;100477.38;;;6.57;100.00
21728;BME280;11026;50.560;17.852;2023-04-10T03:25:11;100466.88;;;6.57;100.00
21728;BME280;11026;50.560;17.852;2023-04-10T03:27:39;100469.44;;;6.62;100.00
21728;BME280;11026;50.560;17.852;2023-04-10T03:30:08;100466.88;;;6.57;100.00
21728;BME280;11026;50.560;17.852;2023-04-10T03:32:35;100459.91;;;6.53;100.00
21728;BME280;11026;50.560;17.852;2023-04-10T03:35:03;100468.63;;;6.55;100.00
21728;BME280;11026;50.560;17.852;2023-04-10T03:37:30;100469.25;;;6.76;100.00
21728;BME280;11026;50.560;17.852;2023-04-10T03:39:58;100469.13;;;6.83;100.00
21728;BME280;11026;50.560;17.852;2023-04-10T03:42:25;100455.97;;;6.83;100.00
21728;BME280;11026;50.560;17.852;2023-04-10T03:44:54;100464.13;;;6.67;100.00
21728;BME280;11026;50.560;17.852;2023-04-10T03:47:22;100458.88;;;6.63;100.00
21728;BME280;11026;50.560;17.852;2023-04-10T03:49:50;100464.31;;;6.51;100.00
21728;BME280;11026;50.560;17.852;2023-04-10T03:52:17;100451.09;;;6.57;100.00
21728;BME280;11026;50.560;17.852;2023-04-10T03:54:45;100458.25;;;6.46;100.00
21728;BME280;11026;50.560;17.852;2023-04-10T03:57:13;100456.63;;;6.33;100.00
21728;BME280;11026;50.560;17.852;2023-04-10T03:59:40;100461.88;;;6.33;100.00
21728;BME280;11026;50.560;17.852;2023-04-10T04:02:08;100472.34;;;6.39;100.00
21728;BME280;11026;50.560;17.852;2023-04-10T04:04:37;100463.72;;;6.28;100.00
21728;BME280;11026;50.560;17.852;2023-04-10T04:07:14;100469.69;;;6.42;100.00
21728;BME280;11026;50.560;17.852;2023-04-10T04:09:41;100464.19;;;6.62;100.00
21728;BME280;11026;50.560;17.852;2023-04-10T04:12:11;100464.84;;;6.76;100.00
21728;BME280;11026;50.560;17.852;2023-04-10T04:14:38;100461.47;;;6.65;100.00
21728;BME280;11026;50.560;17.852;2023-04-10T04:17:05;100466.09;;;6.48;100.00
21728;BME280;11026;50.560;17.852;2023-04-10T04:19:33;100481.91;;;6.46;100.00
21728;BME280;11026;50.560;17.852;2023-04-10T04:22:00;100485.50;;;6.39;100.00
21728;BME280;11026;50.560;17.852;2023-04-10T04:24:28;100484.28;;;6.64;100.00
21728;BME280;11026;50.560;17.852;2023-04-10T04:26:55;100478.06;;;6.72;100.00
21728;BME280;11026;50.560;17.852;2023-04-10T04:29:23;100484.09;;;6.81;100.00
21728;BME280;11026;50.560;17.852;2023-04-10T04:31:52;100489.34;;;6.80;100.00
21728;BME280;11026;50.560;17.852;2023-04-10T04:34:21;100491.00;;;6.87;100.00
21728;BME280;11026;50.560;17.852;2023-04-10T04:36:49;100485.59;;;6.98;100.00
21728;BME280;11026;50.560;17.852;2023-04-10T04:39:17;100492.56;;;7.00;100.00
21728;BME280;11026;50.560;17.852;2023-04-10T04:41:49;100501.34;;;6.99;100.00
21728;BME280;11026;50.560;17.852;2023-04-10T04:44:17;100500.53;;;6.97;100.00
21728;BME280;11026;50.560;17.852;2023-04-10T04:46:45;100496.84;;;7.07;100.00
21728;BME280;11026;50.560;17.852;2023-04-10T04:49:13;100493.19;;;7.21;100.00
21728;BME280;11026;50.560;17.852;2023-04-10T04:51:40;100501.91;;;7.23;100.00
21728;BME280;11026;50.560;17.852;2023-04-10T04:54:08;100502.63;;;7.32;100.00
21728;BME280;11026;50.560;17.852;2023-04-10T04:56:35;100502.75;;;7.25;100.00
21728;BME280;11026;50.560;17.852;2023-04-10T04:59:03;100507.13;;;7.26;100.00
21728;BME280;11026;50.560;17.852;2023-04-10T05:01:30;100514.13;;;7.27;100.00
21728;BME280;11026;50.560;17.852;2023-04-10T05:03:58;100525.47;;;7.30;100.00
21728;BME280;11026;50.560;17.852;2023-04-10T05:06:26;100527.31;;;7.25;100.00
21728;BME280;11026;50.560;17.852;2023-04-10T05:08:53;100527.22;;;7.33;100.00
21728;BME280;11026;50.560;17.852;2023-04-10T05:11:22;100536.03;;;7.27;100.00
21728;BME280;11026;50.560;17.852;2023-04-10T05:13:55;100536.03;;;7.29;100.00
21728;BME280;11026;50.560;17.852;2023-04-10T05:16:22;100542.97;;;7.34;100.00
21728;BME280;11026;50.560;17.852;2023-04-10T05:18:49;100536.84;;;7.34;100.00
21728;BME280;11026;50.560;17.852;2023-04-10T05:21:24;100537.66;;;7.37;100.00
21728;BME280;11026;50.560;17.852;2023-04-10T05:23:58;100549.91;;;7.38;100.00
21728;BME280;11026;50.560;17.852;2023-04-10T05:26:25;100554.41;;;7.32;100.00
21728;BME280;11026;50.560;17.852;2023-04-10T05:28:54;100544.72;;;7.32;100.00
21728;BME280;11026;50.560;17.852;2023-04-10T05:31:23;100538.53;;;7.38;100.00
21728;BME280;11026;50.560;17.852;2023-04-10T05:33:50;100538.41;;;7.46;100.00
21728;BME280;11026;50.560;17.852;2023-04-10T05:36:18;100545.38;;;7.48;100.00
21728;BME280;11026;50.560;17.852;2023-04-10T05:38:45;100542.66;;;7.54;100.00
21728;BME280;11026;50.560;17.852;2023-04-10T05:41:12;100538.38;;;7.47;100.00
21728;BME280;11026;50.560;17.852;2023-04-10T05:43:39;100536.25;;;7.71;100.00
21728;BME280;11026;50.560;17.852;2023-04-10T05:46:07;100529.97;;;7.79;100.00
21728;BME280;11026;50.560;17.852;2023-04-10T05:48:35;100539.84;;;7.67;100.00
21728;BME280;11026;50.560;17.852;2023-04-10T05:51:03;100536.09;;;7.80;100.00
21728;BME280;11026;50.560;17.852;2023-04-10T05:53:30;100533.63;;;7.72;100.00
21728;BME280;11026;50.560;17.852;2023-04-10T05:55:58;100529.91;;;7.27;100.00
21728;BME280;11026;50.560;17.852;2023-04-10T05:58:26;100526.66;;;7.08;100.00
21728;BME280;11026;50.560;17.852;2023-04-10T06:00:54;100530.44;;;6.90;100.00
21728;BME280;11026;50.560;17.852;2023-04-10T06:03:22;100521.53;;;6.99;100.00
21728;BME280;11026;50.560;17.852;2023-04-10T06:05:51;100526.78;;;7.00;100.00
21728;BME280;11026;50.560;17.852;2023-04-10T06:08:20;100529.44;;;6.99;100.00
21728;BME280;11026;50.560;17.852;2023-04-10T06:10:48;100526.56;;;7.15;100.00
21728;BME280;11026;50.560;17.852;2023-04-10T06:13:18;100519.63;;;7.10;100.00
21728;BME280;11026;50.560;17.852;2023-04-10T06:15:45;100520.34;;;7.21;100.00
21728;BME280;11026;50.560;17.852;2023-04-10T06:18:14;100518.16;;;7.51;100.00
21728;BME280;11026;50.560;17.852;2023-04-10T06:20:43;100531.09;;;7.64;100.00
21728;BME280;11026;50.560;17.852;2023-04-10T06:23:12;100535.44;;;7.67;100.00
21728;BME280;11026;50.560;17.852;2023-04-10T06:25:40;100538.84;;;7.74;100.00
21728;BME280;11026;50.560;17.852;2023-04-10T06:28:08;100536.69;;;7.96;100.00
21728;BME280;11026;50.560;17.852;2023-04-10T06:30:41;100530.34;;;8.07;100.00
21728;BME280;11026;50.560;17.852;2023-04-10T06:33:09;100547.06;;;8.08;100.00
21728;BME280;11026;50.560;17.852;2023-04-10T06:35:38;100542.47;;;8.18;100.00
21728;BME280;11026;50.560;17.852;2023-04-10T06:38:06;100539.78;;;8.21;100.00
21728;BME280;11026;50.560;17.852;2023-04-10T06:40:34;100544.25;;;8.16;100.00
21728;BME280;11026;50.560;17.852;2023-04-10T06:43:03;100553.88;;;8.20;100.00
21728;BME280;11026;50.560;17.852;2023-04-10T06:45:31;100559.47;;;8.00;100.00
21728;BME280;11026;50.560;17.852;2023-04-10T06:47:58;100563.78;;;8.05;100.00
21728;BME280;11026;50.560;17.852;2023-04-10T06:50:26;100573.53;;;8.00;100.00
21728;BME280;11026;50.560;17.852;2023-04-10T06:52:53;100566.28;;;8.13;100.00
21728;BME280;11026;50.560;17.852;2023-04-10T06:55:22;100562.78;;;8.11;100.00
21728;BME280;11026;50.560;17.852;2023-04-10T06:57:56;100577.69;;;8.13;100.00
21728;BME280;11026;50.560;17.852;2023-04-10T07:00:24;100574.56;;;7.90;100.00
21728;BME280;11026;50.560;17.852;2023-04-10T07:02:51;100566.50;;;7.99;100.00
21728;BME280;11026;50.560;17.852;2023-04-10T07:05:32;100564.69;;;8.03;100.00
21728;BME280;11026;50.560;17.852;2023-04-10T07:08:00;100569.13;;;7.99;100.00
21728;BME280;11026;50.560;17.852;2023-04-10T07:10:28;100567.31;;;8.04;100.00
21728;BME280;11026;50.560;17.852;2023-04-10T07:12:55;100563.81;;;8.02;100.00
21728;BME280;11026;50.560;17.852;2023-04-10T07:15:24;100560.28;;;8.03;100.00
21728;BME280;11026;50.560;17.852;2023-04-10T07:17:52;100565.50;;;8.06;100.00
21728;BME280;11026;50.560;17.852;2023-04-10T07:20:20;100571.66;;;8.07;100.00
21728;BME280;11026;50.560;17.852;2023-04-10T07:22:53;100561.97;;;8.07;100.00
21728;BME280;11026;50.560;17.852;2023-04-10T07:25:21;100560.25;;;8.06;100.00
21728;BME280;11026;50.560;17.852;2023-04-10T07:27:49;100569.88;;;8.09;100.00
21728;BME280;11026;50.560;17.852;2023-04-10T07:30:18;100561.03;;;8.11;100.00
21728;BME280;11026;50.560;17.852;2023-04-10T07:32:45;100567.16;;;8.13;100.00
21728;BME280;11026;50.560;17.852;2023-04-10T07:35:13;100566.25;;;8.16;100.00
21728;BME280;11026;50.560;17.852;2023-04-10T07:37:42;100559.97;;;8.22;100.00
21728;BME280;11026;50.560;17.852;2023-04-10T07:40:10;100567.84;;;8.23;100.00
21728;BME280;11026;50.560;17.852;2023-04-10T07:42:38;100565.06;;;8.31;100.00
21728;BME280;11026;50.560;17.852;2023-04-10T07:45:05;100558.84;;;8.35;100.00
21728;BME280;11026;50.560;17.852;2023-04-10T07:47:33;100561.47;;;8.36;100.00
21728;BME280;11026;50.560;17.852;2023-04-10T07:50:01;100561.22;;;8.50;100.00
21728;BME280;11026;50.560;17.852;2023-04-10T07:52:29;100555.00;;;8.54;100.00
21728;BME280;11026;50.560;17.852;2023-04-10T07:54:57;100564.28;;;8.74;100.00
21728;BME280;11026;50.560;17.852;2023-04-10T07:57:26;100563.22;;;8.82;100.00
21728;BME280;11026;50.560;17.852;2023-04-10T07:59:56;100574.47;;;8.92;100.00
21728;BME280;11026;50.560;17.852;2023-04-10T08:02:23;100568.28;;;8.93;100.00
21728;BME280;11026;50.560;17.852;2023-04-10T08:04:51;100568.25;;;8.96;100.00
21728;BME280;11026;50.560;17.852;2023-04-10T08:07:19;100568.94;;;9.04;100.00
21728;BME280;11026;50.560;17.852;2023-04-10T08:09:50;100572.34;;;9.09;100.00
21728;BME280;11026;50.560;17.852;2023-04-10T08:12:17;100566.88;;;9.19;100.00
21728;BME280;11026;50.560;17.852;2023-04-10T08:14:45;100572.41;;;9.06;100.00
21728;BME280;11026;50.560;17.852;2023-04-10T08:17:13;100574.88;;;9.14;100.00
21728;BME280;11026;50.560;17.852;2023-04-10T08:19:41;100572.41;;;9.06;100.00
21728;BME280;11026;50.560;17.852;2023-04-10T08:22:10;100568.75;;;9.14;100.00
21728;BME280;11026;50.560;17.852;2023-04-10T08:24:37;100564.94;;;9.27;100.00
21728;BME280;11026;50.560;17.852;2023-04-10T08:27:05;100564.38;;;9.51;100.00
21728;BME280;11026;50.560;17.852;2023-04-10T08:29:32;100555.91;;;9.74;100.00
21728;BME280;11026;50.560;17.852;2023-04-10T08:32:05;100564.97;;;10.00;100.00
21728;BME280;11026;50.560;17.852;2023-04-10T08:34:33;100559.06;;;10.26;100.00
21728;BME280;11026;50.560;17.852;2023-04-10T08:37:04;100564.09;;;10.35;100.00
21728;BME280;11026;50.560;17.852;2023-04-10T08:39:36;100562.03;;;10.46;100.00
21728;BME280;11026;50.560;17.852;2023-04-10T08:42:10;100564.19;;;10.63;100.00
21728;BME280;11026;50.560;17.852;2023-04-10T08:44:39;100559.75;;;10.65;100.00
21728;BME280;11026;50.560;17.852;2023-04-10T08:47:08;100556.41;;;10.88;100.00
21728;BME280;11026;50.560;17.852;2023-04-10T08:49:59;100562.53;;;11.21;98.65
21728;BME280;11026;50.560;17.852;2023-04-10T08:52:30;100555.16;;;11.31;93.87
21728;BME280;11026;50.560;17.852;2023-04-10T08:55:07;100565.81;;;11.29;92.46
21728;BME280;11026;50.560;17.852;2023-04-10T08:57:36;100558.41;;;11.41;93.25
21728;BME280;11026;50.560;17.852;2023-04-10T09:00:07;100559.34;;;11.38;92.36
21728;BME280;11026;50.560;17.852;2023-04-10T09:02:54;100555.44;;;11.50;92.17
21728;BME280;11026;50.560;17.852;2023-04-10T09:05:26;100544.59;;;11.57;89.42
21728;BME280;11026;50.560;17.852;2023-04-10T09:07:54;100541.81;;;11.62;90.93
21728;BME280;11026;50.560;17.852;2023-04-10T09:10:22;100547.31;;;11.84;89.52
21728;BME280;11026;50.560;17.852;2023-04-10T09:12:49;100544.63;;;12.11;89.33
21728;BME280;11026;50.560;17.852;2023-04-10T09:15:17;100543.34;;;12.22;88.58
21728;BME280;11026;50.560;17.852;2023-04-10T09:17:59;100538.72;;;12.29;88.25
21728;BME280;11026;50.560;17.852;2023-04-10T09:20:30;100536.28;;;12.48;87.77
21728;BME280;11026;50.560;17.852;2023-04-10T09:22:58;100538.78;;;12.76;88.64
21728;BME280;11026;50.560;17.852;2023-04-10T09:25:35;100532.56;;;13.22;86.87
21728;BME280;11026;50.560;17.852;2023-04-10T09:28:06;100528.81;;;13.51;85.00
21728;BME280;11026;50.560;17.852;2023-04-10T09:30:39;100526.69;;;13.82;82.81
21728;BME280;11026;50.560;17.852;2023-04-10T09:33:20;100519.88;;;14.17;82.37
21728;BME280;11026;50.560;17.852;2023-04-10T09:35:49;100512.56;;;14.42;80.20
21728;BME280;11026;50.560;17.852;2023-04-10T09:38:19;100516.22;;;14.40;76.65
21728;BME280;11026;50.560;17.852;2023-04-10T09:40:48;100510.69;;;14.24;75.53
21728;BME280;11026;50.560;17.852;2023-04-10T09:43:25;100510.28;;;14.33;76.96
21728;BME280;11026;50.560;17.852;2023-04-10T09:45:55;100505.56;;;14.60;75.14
21728;BME280;11026;50.560;17.852;2023-04-10T09:48:25;100502.44;;;14.71;75.92
21728;BME280;11026;50.560;17.852;2023-04-10T09:50:53;100501.28;;;14.95;75.45
21728;BME280;11026;50.560;17.852;2023-04-10T09:53:20;100496.69;;;15.18;73.98
21728;BME280;11026;50.560;17.852;2023-04-10T09:55:54;100499.97;;;15.23;71.93
21728;BME280;11026;50.560;17.852;2023-04-10T09:58:23;100492.47;;;14.56;67.87
21728;BME280;11026;50.560;17.852;2023-04-10T10:00:51;100490.88;;;13.90;73.23
21728;BME280;11026;50.560;17.852;2023-04-10T10:03:19;100480.56;;;13.17;77.27
21728;BME280;11026;50.560;17.852;2023-04-10T10:05:50;100481.75;;;14.16;77.56
21728;BME280;11026;50.560;17.852;2023-04-10T10:08:18;100480.47;;;14.45;71.27
21728;BME280;11026;50.560;17.852;2023-04-10T10:10:50;100479.97;;;14.58;71.67
21728;BME280;11026;50.560;17.852;2023-04-10T10:13:40;100481.31;;;15.23;69.63
21728;BME280;11026;50.560;17.852;2023-04-10T10:16:31;100473.00;;;15.84;66.35
21728;BME280;11026;50.560;17.852;2023-04-10T10:19:08;100479.81;;;16.58;63.69
21728;BME280;11026;50.560;17.852;2023-04-10T10:21:38;100476.06;;;17.27;63.11
21728;BME280;11026;50.560;17.852;2023-04-10T10:24:09;100472.94;;;17.03;58.53
21728;BME280;11026;50.560;17.852;2023-04-10T10:26:39;100477.91;;;16.77;61.81
21728;BME280;11026;50.560;17.852;2023-04-10T10:29:14;100478.06;;;16.74;60.88
21728;BME280;11026;50.560;17.852;2023-04-10T10:31:44;100473.97;;;16.84;61.09
21728;BME280;11026;50.560;17.852;2023-04-10T10:34:14;100473.38;;;16.62;62.50
21728;BME280;11026;50.560;17.852;2023-04-10T10:36:43;100462.59;;;16.47;62.52
21728;BME280;11026;50.560;17.852;2023-04-10T10:42:19;100465.56;;;16.41;63.38
21728;BME280;11026;50.560;17.852;2023-04-10T10:45:06;100466.97;;;16.48;63.13
21728;BME280;11026;50.560;17.852;2023-04-10T10:48:05;100457.13;;;16.82;64.39
21728;BME280;11026;50.560;17.852;2023-04-10T10:50:55;100453.63;;;16.98;62.98
21728;BME280;11026;50.560;17.852;2023-04-10T10:53:43;100443.56;;;17.03;62.63
21728;BME280;11026;50.560;17.852;2023-04-10T10:58:55;100443.56;;;17.49;60.25
21728;BME280;11026;50.560;17.852;2023-04-10T11:01:25;100442.06;;;18.05;59.11
21728;BME280;11026;50.560;17.852;2023-04-10T11:03:53;100438.66;;;18.31;57.22
21728;BME280;11026;50.560;17.852;2023-04-10T11:06:47;100440.25;;;19.05;57.39
21728;BME280;11026;50.560;17.852;2023-04-10T11:09:53;100434.91;;;19.05;56.61
21728;BME280;11026;50.560;17.852;2023-04-10T11:12:22;100431.50;;;18.75;56.54
21728;BME280;11026;50.560;17.852;2023-04-10T11:15:02;100436.75;;;18.33;57.04
21728;BME280;11026;50.560;17.852;2023-04-10T11:17:50;100427.84;;;18.18;58.34
21728;BME280;11026;50.560;17.852;2023-04-10T11:20:19;100432.88;;;18.09;58.92
21728;BME280;11026;50.560;17.852;2023-04-10T11:23:09;100438.56;;;17.88;58.10
21728;BME280;11026;50.560;17.852;2023-04-10T11:25:50;100432.81;;;17.80;59.30
21728;BME280;11026;50.560;17.852;2023-04-10T11:28:35;100431.69;;;17.38;59.55
21728;BME280;11026;50.560;17.852;2023-04-10T11:31:18;100430.41;;;16.98;59.19
21728;BME280;11026;50.560;17.852;2023-04-10T11:36:26;100416.72;;;17.04;61.94
21728;BME280;11026;50.560;17.852;2023-04-10T11:39:12;100422.72;;;16.60;62.19
21728;BME280;11026;50.560;17.852;2023-04-10T11:41:53;100426.78;;;16.34;62.43
21728;BME280;11026;50.560;17.852;2023-04-10T11:44:31;100411.75;;;16.16;62.12
21728;BME280;11026;50.560;17.852;2023-04-10T11:47:01;100416.69;;;16.06;62.51
21728;BME280;11026;50.560;17.852;2023-04-10T11:49:33;100412.25;;;15.89;63.16
21728;BME280;11026;50.560;17.852;2023-04-10T11:52:02;100411.91;;;15.95;63.19
21728;BME280;11026;50.560;17.852;2023-04-10T11:54:30;100417.25;;;15.95;62.40
21728;BME280;11026;50.560;17.852;2023-04-10T11:57:02;100409.50;;;15.91;62.54
21728;BME280;11026;50.560;17.852;2023-04-10T11:59:31;100411.09;;;15.78;63.40
21728;BME280;11026;50.560;17.852;2023-04-10T12:02:10;100408.03;;;15.85;63.09
21728;BME280;11026;50.560;17.852;2023-04-10T12:04:44;100409.03;;;15.83;62.89
21728;BME280;11026;50.560;17.852;2023-04-10T12:07:13;100398.19;;;16.03;62.24
21728;BME280;11026;50.560;17.852;2023-04-10T12:09:40;100395.34;;;16.23;61.44
21728;BME280;11026;50.560;17.852;2023-04-10T12:12:09;100396.31;;;16.54;60.53
21728;BME280;11026;50.560;17.852;2023-04-10T12:14:40;100387.56;;;16.68;59.65
21728;BME280;11026;50.560;17.852;2023-04-10T12:17:10;100389.91;;;16.74;58.26
21728;BME280;11026;50.560;17.852;2023-04-10T12:19:39;100385.34;;;17.08;57.28
21728;BME280;11026;50.560;17.852;2023-04-10T12:22:07;100387.00;;;17.40;56.45
21728;BME280;11026;50.560;17.852;2023-04-10T12:24:57;100380.63;;;17.43;57.40
21728;BME280;11026;50.560;17.852;2023-04-10T12:27:27;100367.72;;;17.50;55.66
21728;BME280;11026;50.560;17.852;2023-04-10T12:29:57;100367.59;;;17.67;54.99
21728;BME280;11026;50.560;17.852;2023-04-10T12:32:24;100364.72;;;18.14;56.08
21728;BME280;11026;50.560;17.852;2023-04-10T12:34:55;100355.78;;;18.71;52.50
21728;BME280;11026;50.560;17.852;2023-04-10T12:37:25;100357.81;;;19.22;51.33
21728;BME280;11026;50.560;17.852;2023-04-10T12:40:13;100344.16;;;19.52;50.57
21728;BME280;11026;50.560;17.852;2023-04-10T12:42:41;100352.72;;;19.84;50.83
21728;BME280;11026;50.560;17.852;2023-04-10T12:45:09;100351.00;;;19.96;50.85
21728;BME280;11026;50.560;17.852;2023-04-10T12:47:48;100343.25;;;19.78;50.14
21728;BME280;11026;50.560;17.852;2023-04-10T12:50:19;100341.22;;;19.82;50.52
21728;BME280;11026;50.560;17.852;2023-04-10T12:53:04;100341.06;;;19.58;50.62
21728;BME280;11026;50.560;17.852;2023-04-10T12:55:38;100338.03;;;19.37;50.12
21728;BME280;11026;50.560;17.852;2023-04-10T12:58:16;100332.03;;;18.79;50.42
21728;BME280;11026;50.560;17.852;2023-04-10T13:00:44;100327.09;;;18.73;50.84
21728;BME280;11026;50.560;17.852;2023-04-10T13:03:13;100320.78;;;18.46;51.83
21728;BME280;11026;50.560;17.852;2023-04-10T13:05:41;100325.13;;;17.91;51.66
21728;BME280;11026;50.560;17.852;2023-04-10T13:08:14;100322.28;;;17.64;52.82
21728;BME280;11026;50.560;17.852;2023-04-10T13:10:42;100310.84;;;17.02;53.28
21728;BME280;11026;50.560;17.852;2023-04-10T13:13:09;100311.31;;;17.24;53.42
21728;BME280;11026;50.560;17.852;2023-04-10T13:15:40;100306.19;;;18.23;52.19